createdAt,value
2018-06-11T00:00:30.389Z,0
2018-06-11T00:01:30.353Z,0
2018-06-11T00:02:30.387Z,0
2018-06-11T00:03:30.393Z,0
2018-06-11T00:04:30.363Z,0
2018-06-11T00:05:30.315Z,0
2018-06-11T00:06:30.458Z,0
2018-06-11T00:07:30.363Z,0
2018-06-11T00:08:30.306Z,0
2018-06-11T00:09:30.319Z,0
2018-06-11T00:10:30.365Z,0
2018-06-11T00:11:30.296Z,0
2018-06-11T00:12:30.311Z,0
2018-06-11T00:13:30.295Z,0
2018-06-11T00:14:30.399Z,0
2018-06-11T00:15:30.367Z,0
2018-06-11T00:16:30.348Z,0
2018-06-11T00:17:30.335Z,0
2018-06-11T00:18:30.397Z,0
2018-06-11T00:19:30.367Z,0
2018-06-11T00:20:30.370Z,0
2018-06-11T00:21:30.309Z,0
2018-06-11T00:22:30.471Z,0
2018-06-11T00:23:30.399Z,0
2018-06-11T00:24:30.309Z,0
2018-06-11T00:25:30.345Z,0
2018-06-11T00:26:30.392Z,0
2018-06-11T00:27:30.352Z,0
2018-06-11T00:28:30.339Z,0
2018-06-11T00:29:30.291Z,0
2018-06-11T00:30:30.300Z,0
2018-06-11T00:31:30.436Z,0
2018-06-11T00:32:30.398Z,0
2018-06-11T00:33:30.315Z,0
2018-06-11T00:34:30.397Z,0
2018-06-11T00:35:30.383Z,0
2018-06-11T00:36:30.389Z,0
2018-06-11T00:37:30.386Z,0
2018-06-11T00:38:30.388Z,0
2018-06-11T00:39:30.308Z,0
2018-06-11T00:40:30.407Z,0
2018-06-11T00:41:30.332Z,0
2018-06-11T00:42:30.389Z,0
2018-06-11T00:43:30.350Z,0
2018-06-11T00:44:30.380Z,0
2018-06-11T00:45:30.380Z,0
2018-06-11T00:46:30.310Z,0
2018-06-11T00:47:30.381Z,0
2018-06-11T00:48:30.372Z,0
2018-06-11T00:49:30.316Z,0
2018-06-11T00:50:30.381Z,0
2018-06-11T00:51:30.311Z,0
2018-06-11T00:52:30.384Z,0
2018-06-11T00:53:30.340Z,0
2018-06-11T00:54:30.272Z,0
2018-06-11T00:55:30.312Z,0
2018-06-11T00:56:30.341Z,0
2018-06-11T00:57:30.311Z,0
2018-06-11T00:58:30.259Z,0
2018-06-11T00:59:30.263Z,0
2018-06-11T01:00:30.350Z,0
2018-06-11T01:01:30.311Z,0
2018-06-11T01:02:30.319Z,0
2018-06-11T01:03:30.315Z,0
2018-06-11T01:04:30.330Z,0
2018-06-11T01:05:30.393Z,0
2018-06-11T01:06:30.325Z,0
2018-06-11T01:07:30.396Z,0
2018-06-11T01:08:30.331Z,0
2018-06-11T01:09:30.397Z,0
2018-06-11T01:10:30.395Z,0
2018-06-11T01:11:30.329Z,0
2018-06-11T01:12:30.329Z,0
2018-06-11T01:13:30.403Z,0
2018-06-11T01:14:30.416Z,0
2018-06-11T01:15:30.413Z,0
2018-06-11T01:16:30.352Z,0
2018-06-11T01:17:30.342Z,0
2018-06-11T01:18:30.344Z,0
2018-06-11T01:19:30.344Z,0
2018-06-11T01:20:30.342Z,0
2018-06-11T01:21:30.410Z,0
2018-06-11T01:22:30.346Z,0
2018-06-11T01:23:30.345Z,0
2018-06-11T01:24:30.419Z,0
2018-06-11T01:25:30.440Z,0
2018-06-11T01:26:30.397Z,0
2018-06-11T01:27:30.334Z,0
2018-06-11T01:28:30.454Z,0
2018-06-11T01:29:30.411Z,0
2018-06-11T01:30:30.458Z,0
2018-06-11T01:31:30.319Z,0
2018-06-11T01:32:30.420Z,0
2018-06-11T01:33:30.346Z,0
2018-06-11T01:34:30.343Z,0
2018-06-11T01:35:30.414Z,0
2018-06-11T01:36:30.346Z,0
2018-06-11T01:37:30.413Z,0
2018-06-11T01:38:30.344Z,0
2018-06-11T01:39:30.343Z,0
2018-06-11T01:40:30.419Z,0
2018-06-11T01:41:30.348Z,0
2018-06-11T01:42:30.457Z,0
2018-06-11T01:43:30.352Z,0
2018-06-11T01:44:30.473Z,0
2018-06-11T01:45:30.357Z,0
2018-06-11T01:46:30.359Z,0
2018-06-11T01:47:30.359Z,0
2018-06-11T01:48:30.359Z,0
2018-06-11T01:49:30.362Z,0
2018-06-11T01:50:30.442Z,0
2018-06-11T01:51:30.441Z,0
2018-06-11T01:52:30.362Z,0
2018-06-11T01:53:30.434Z,0
2018-06-11T01:54:30.355Z,0
2018-06-11T01:55:30.481Z,0
2018-06-11T01:56:30.456Z,0
2018-06-11T01:57:30.453Z,0
2018-06-11T01:58:30.477Z,0
2018-06-11T01:59:30.414Z,0
2018-06-11T02:00:30.435Z,0
2018-06-11T02:01:30.477Z,0
2018-06-11T02:02:30.439Z,0
2018-06-11T02:03:30.473Z,0
2018-06-11T02:04:30.361Z,0
2018-06-11T02:05:30.437Z,0
2018-06-11T02:06:30.360Z,0
2018-06-11T02:07:30.439Z,0
2018-06-11T02:08:30.367Z,0
2018-06-11T02:09:30.437Z,0
2018-06-11T02:10:30.365Z,0
2018-06-11T02:11:30.436Z,0
2018-06-11T02:12:30.365Z,0
2018-06-11T02:13:30.323Z,0
2018-06-11T02:14:30.428Z,0
2018-06-11T02:15:30.470Z,0
2018-06-11T02:16:30.424Z,0
2018-06-11T02:17:30.468Z,0
2018-06-11T02:18:30.408Z,0
2018-06-11T02:19:30.507Z,0
2018-06-11T02:20:30.431Z,0
2018-06-11T02:21:30.425Z,0
2018-06-11T02:22:30.411Z,0
2018-06-11T02:23:30.391Z,0
2018-06-11T02:24:30.339Z,0
2018-06-11T02:25:30.242Z,0
2018-06-11T02:26:30.345Z,0
2018-06-11T02:27:30.335Z,0
2018-06-11T02:28:30.339Z,0
2018-06-11T02:29:30.238Z,0
2018-06-11T02:30:30.344Z,0
2018-06-11T02:31:30.246Z,0
2018-06-11T02:32:30.252Z,0
2018-06-11T02:33:30.255Z,0
2018-06-11T02:34:30.322Z,0
2018-06-11T02:35:30.323Z,0
2018-06-11T02:36:30.379Z,0
2018-06-11T02:37:30.323Z,0
2018-06-11T02:38:30.326Z,0
2018-06-11T02:39:30.327Z,0
2018-06-11T02:40:30.382Z,0
2018-06-11T02:41:30.383Z,0
2018-06-11T02:42:30.384Z,0
2018-06-11T02:43:30.329Z,0
2018-06-11T02:44:30.395Z,0
2018-06-11T02:45:30.467Z,0
2018-06-11T02:46:30.391Z,0
2018-06-11T02:47:30.462Z,0
2018-06-11T02:48:30.389Z,0
2018-06-11T02:49:30.468Z,0
2018-06-11T02:50:30.393Z,0
2018-06-11T02:51:30.466Z,0
2018-06-11T02:52:30.393Z,0
2018-06-11T02:53:30.465Z,0
2018-06-11T02:54:30.392Z,0
2018-06-11T02:55:30.466Z,0
2018-06-11T02:56:30.397Z,0
2018-06-11T02:57:30.466Z,0
2018-06-11T02:58:30.466Z,0
2018-06-11T02:59:30.400Z,5
2018-06-11T03:00:30.469Z,5
2018-06-11T03:01:30.404Z,5
2018-06-11T03:02:30.474Z,5
2018-06-11T03:03:30.404Z,5
2018-06-11T03:04:30.351Z,5
2018-06-11T03:05:30.375Z,5
2018-06-11T03:06:30.469Z,5
2018-06-11T03:07:30.372Z,5
2018-06-11T03:08:30.379Z,5
2018-06-11T03:09:30.466Z,11
2018-06-11T03:10:30.399Z,11
2018-06-11T03:11:30.466Z,11
2018-06-11T03:12:30.463Z,11
2018-06-11T03:13:30.469Z,11
2018-06-11T03:14:30.428Z,11
2018-06-11T03:15:30.418Z,11
2018-06-11T03:16:30.418Z,11
2018-06-11T03:17:30.460Z,16
2018-06-11T03:18:30.493Z,16
2018-06-11T03:19:30.492Z,16
2018-06-11T03:20:30.384Z,16
2018-06-11T03:21:30.497Z,16
2018-06-11T03:22:30.426Z,16
2018-06-11T03:23:30.424Z,16
2018-06-11T03:24:30.428Z,16
2018-06-11T03:25:30.548Z,22
2018-06-11T03:26:30.502Z,22
2018-06-11T03:27:30.503Z,22
2018-06-11T03:28:30.494Z,22
2018-06-11T03:29:30.586Z,28
2018-06-11T03:30:30.478Z,28
2018-06-11T03:31:30.530Z,28
2018-06-11T03:32:30.527Z,28
2018-06-11T03:33:30.544Z,33
2018-06-11T03:34:30.439Z,33
2018-06-11T03:35:30.496Z,33
2018-06-11T03:36:30.444Z,39
2018-06-11T03:37:30.419Z,39
2018-06-11T03:38:30.559Z,39
2018-06-11T03:39:30.460Z,39
2018-06-11T03:40:30.529Z,39
2018-06-11T03:41:30.513Z,39
2018-06-11T03:42:30.540Z,39
2018-06-11T03:43:30.543Z,39
2018-06-11T03:44:30.482Z,39
2018-06-11T03:45:30.547Z,39
2018-06-11T03:46:30.443Z,45
2018-06-11T03:47:30.431Z,45
2018-06-11T03:48:30.430Z,50
2018-06-11T03:49:30.449Z,45
2018-06-11T03:50:30.481Z,45
2018-06-11T03:51:30.507Z,45
2018-06-11T03:52:30.482Z,50
2018-06-11T03:53:30.435Z,50
2018-06-11T03:54:30.506Z,50
2018-06-11T03:55:30.435Z,56
2018-06-11T03:56:30.436Z,56
2018-06-11T03:57:30.509Z,56
2018-06-11T03:58:30.441Z,56
2018-06-11T03:59:30.439Z,56
2018-06-11T04:00:30.509Z,61
2018-06-11T04:01:30.438Z,61
2018-06-11T04:02:30.510Z,61
2018-06-11T04:03:30.445Z,61
2018-06-11T04:04:30.553Z,67
2018-06-11T04:05:30.558Z,73
2018-06-11T04:06:30.526Z,78
2018-06-11T04:07:30.499Z,84
2018-06-11T04:08:30.491Z,90
2018-06-11T04:09:30.443Z,95
2018-06-11T04:10:30.504Z,101
2018-06-11T04:11:30.491Z,106
2018-06-11T04:12:30.526Z,106
2018-06-11T04:13:30.450Z,101
2018-06-11T04:14:30.478Z,106
2018-06-11T04:15:30.383Z,112
2018-06-11T04:16:30.383Z,118
2018-06-11T04:17:30.430Z,118
2018-06-11T04:18:30.475Z,118
2018-06-11T04:19:30.428Z,123
2018-06-11T04:20:30.390Z,140
2018-06-11T04:21:30.429Z,151
2018-06-11T04:22:30.396Z,146
2018-06-11T04:23:30.474Z,135
2018-06-11T04:24:30.492Z,123
2018-06-11T04:25:30.408Z,123
2018-06-11T04:26:30.451Z,129
2018-06-11T04:27:30.454Z,129
2018-06-11T04:28:30.449Z,129
2018-06-11T04:29:30.410Z,129
2018-06-11T04:30:30.547Z,123
2018-06-11T04:31:30.579Z,129
2018-06-11T04:32:30.526Z,146
2018-06-11T04:33:30.502Z,163
2018-06-11T04:34:30.440Z,180
2018-06-11T04:35:30.499Z,185
2018-06-11T04:36:30.616Z,180
2018-06-11T04:37:30.463Z,174
2018-06-11T04:38:30.520Z,174
2018-06-11T04:39:30.539Z,174
2018-06-11T04:40:30.518Z,185
2018-06-11T04:41:30.495Z,191
2018-06-11T04:42:30.540Z,202
2018-06-11T04:43:30.484Z,208
2018-06-11T04:44:30.522Z,208
2018-06-11T04:45:30.453Z,196
2018-06-11T04:46:30.577Z,191
2018-06-11T04:47:30.484Z,196
2018-06-11T04:48:30.512Z,213
2018-06-11T04:49:30.583Z,225
2018-06-11T04:50:30.524Z,230
2018-06-11T04:51:30.465Z,230
2018-06-11T04:52:30.565Z,225
2018-06-11T04:53:30.471Z,219
2018-06-11T04:54:30.581Z,208
2018-06-11T04:55:30.509Z,208
2018-06-11T04:56:30.549Z,208
2018-06-11T04:57:30.458Z,213
2018-06-11T04:58:30.553Z,219
2018-06-11T04:59:30.576Z,236
2018-06-11T05:00:30.555Z,253
2018-06-11T05:01:30.480Z,275
2018-06-11T05:02:30.519Z,281
2018-06-11T05:03:30.562Z,286
2018-06-11T05:04:30.492Z,292
2018-06-11T05:05:30.555Z,303
2018-06-11T05:06:30.488Z,303
2018-06-11T05:07:30.491Z,298
2018-06-11T05:08:30.564Z,292
2018-06-11T05:09:30.561Z,292
2018-06-11T05:10:30.493Z,303
2018-06-11T05:11:30.564Z,320
2018-06-11T05:12:30.492Z,331
2018-06-11T05:13:30.498Z,326
2018-06-11T05:14:30.520Z,286
2018-06-11T05:15:30.579Z,264
2018-06-11T05:16:30.496Z,258
2018-06-11T05:17:30.499Z,247
2018-06-11T05:18:30.500Z,230
2018-06-11T05:19:30.499Z,213
2018-06-11T05:20:30.572Z,191
2018-06-11T05:21:30.592Z,180
2018-06-11T05:22:30.503Z,180
2018-06-11T05:23:30.533Z,185
2018-06-11T05:24:30.513Z,191
2018-06-11T05:25:30.477Z,196
2018-06-11T05:26:30.646Z,213
2018-06-11T05:27:30.651Z,241
2018-06-11T05:28:30.605Z,286
2018-06-11T05:29:30.483Z,337
2018-06-11T05:30:30.613Z,371
2018-06-11T05:31:30.553Z,388
2018-06-11T05:32:30.534Z,405
2018-06-11T05:33:30.646Z,405
2018-06-11T05:34:30.601Z,421
2018-06-11T05:35:30.578Z,433
2018-06-11T05:36:30.509Z,421
2018-06-11T05:37:30.584Z,416
2018-06-11T05:38:30.553Z,399
2018-06-11T05:39:30.558Z,382
2018-06-11T05:40:30.569Z,360
2018-06-11T05:41:30.590Z,343
2018-06-11T05:42:30.518Z,337
2018-06-11T05:43:30.586Z,348
2018-06-11T05:44:30.486Z,365
2018-06-11T05:45:30.605Z,365
2018-06-11T05:46:30.588Z,354
2018-06-11T05:47:30.508Z,348
2018-06-11T05:48:30.621Z,348
2018-06-11T05:49:30.618Z,337
2018-06-11T05:50:30.529Z,337
2018-06-11T05:51:30.514Z,331
2018-06-11T05:52:30.617Z,337
2018-06-11T05:53:30.581Z,343
2018-06-11T05:54:30.560Z,365
2018-06-11T05:55:30.595Z,382
2018-06-11T05:56:30.547Z,421
2018-06-11T05:57:30.603Z,461
2018-06-11T05:58:30.535Z,478
2018-06-11T05:59:30.595Z,489
2018-06-11T06:00:30.601Z,506
2018-06-11T06:01:30.526Z,517
2018-06-11T06:02:30.598Z,534
2018-06-11T06:03:30.533Z,556
2018-06-11T06:04:30.536Z,540
2018-06-11T06:05:30.602Z,489
2018-06-11T06:06:30.561Z,438
2018-06-11T06:07:30.534Z,388
2018-06-11T06:08:30.484Z,365
2018-06-11T06:09:30.532Z,360
2018-06-11T06:10:30.602Z,348
2018-06-11T06:11:30.541Z,331
2018-06-11T06:12:30.535Z,331
2018-06-11T06:13:30.536Z,343
2018-06-11T06:14:30.606Z,365
2018-06-11T06:15:30.625Z,382
2018-06-11T06:16:30.577Z,393
2018-06-11T06:17:30.574Z,399
2018-06-11T06:18:30.542Z,399
2018-06-11T06:19:30.597Z,416
2018-06-11T06:20:30.636Z,450
2018-06-11T06:21:30.584Z,483
2018-06-11T06:22:30.640Z,511
2018-06-11T06:23:30.551Z,511
2018-06-11T06:24:30.578Z,500
2018-06-11T06:25:30.612Z,495
2018-06-11T06:26:30.592Z,517
2018-06-11T06:27:30.645Z,562
2018-06-11T06:28:30.615Z,613
2018-06-11T06:29:30.594Z,630
2018-06-11T06:30:30.556Z,641
2018-06-11T06:31:30.634Z,658
2018-06-11T06:32:30.650Z,686
2018-06-11T06:33:30.569Z,731
2018-06-11T06:34:30.728Z,781
2018-06-11T06:35:30.575Z,855
2018-06-11T06:36:30.672Z,928
2018-06-11T06:37:30.615Z,978
2018-06-11T06:38:30.643Z,1006
2018-06-11T06:39:30.584Z,995
2018-06-11T06:40:30.695Z,967
2018-06-11T06:41:30.600Z,967
2018-06-11T06:42:30.648Z,995
2018-06-11T06:43:30.550Z,1035
2018-06-11T06:44:30.600Z,1068
2018-06-11T06:45:30.629Z,1113
2018-06-11T06:46:30.559Z,1175
2018-06-11T06:47:30.630Z,1265
2018-06-11T06:48:30.558Z,1361
2018-06-11T06:49:30.627Z,1445
2018-06-11T06:50:30.559Z,1456
2018-06-11T06:51:30.640Z,1395
2018-06-11T06:52:30.562Z,1333
2018-06-11T06:53:30.635Z,1350
2018-06-11T06:54:30.628Z,1389
2018-06-11T06:55:30.668Z,1400
2018-06-11T06:56:30.596Z,1417
2018-06-11T06:57:30.537Z,1445
2018-06-11T06:58:30.611Z,1485
2018-06-11T06:59:30.672Z,1490
2018-06-11T07:00:30.598Z,1468
2018-06-11T07:01:30.653Z,1445
2018-06-11T07:02:30.598Z,1400
2018-06-11T07:03:30.662Z,1355
2018-06-11T07:04:30.615Z,1276
2018-06-11T07:05:30.615Z,1231
2018-06-11T07:06:30.608Z,1220
2018-06-11T07:07:30.616Z,1260
2018-06-11T07:08:30.566Z,1276
2018-06-11T07:09:30.640Z,1248
2018-06-11T07:10:30.648Z,1186
2018-06-11T07:11:30.545Z,1147
2018-06-11T07:12:30.669Z,1136
2018-06-11T07:13:30.663Z,1181
2018-06-11T07:14:30.663Z,1231
2018-06-11T07:15:30.612Z,1254
2018-06-11T07:16:30.705Z,1254
2018-06-11T07:17:30.672Z,1220
2018-06-11T07:18:30.611Z,1186
2018-06-11T07:19:30.678Z,1192
2018-06-11T07:20:30.666Z,1220
2018-06-11T07:21:30.573Z,1265
2018-06-11T07:22:30.677Z,1288
2018-06-11T07:23:30.572Z,1293
2018-06-11T07:24:30.660Z,1288
2018-06-11T07:25:30.538Z,1282
2018-06-11T07:26:30.580Z,1254
2018-06-11T07:27:30.522Z,1231
2018-06-11T07:28:30.608Z,1186
2018-06-11T07:29:30.523Z,1080
2018-06-11T07:30:30.586Z,1029
2018-06-11T07:31:30.635Z,1040
2018-06-11T07:32:30.641Z,1035
2018-06-11T07:33:30.689Z,1035
2018-06-11T07:34:30.635Z,1057
2018-06-11T07:35:30.659Z,1080
2018-06-11T07:36:30.592Z,1091
2018-06-11T07:37:30.594Z,1119
2018-06-11T07:38:30.618Z,1181
2018-06-11T07:39:30.684Z,1237
2018-06-11T07:40:30.599Z,1305
2018-06-11T07:41:30.614Z,1361
2018-06-11T07:42:30.694Z,1468
2018-06-11T07:43:30.597Z,1614
2018-06-11T07:44:30.665Z,1794
2018-06-11T07:45:30.617Z,1951
2018-06-11T07:46:30.542Z,1968
2018-06-11T07:47:30.573Z,1918
2018-06-11T07:48:30.587Z,1901
2018-06-11T07:49:30.598Z,1895
2018-06-11T07:50:30.620Z,1816
2018-06-11T07:51:30.592Z,1670
2018-06-11T07:52:30.576Z,1580
2018-06-11T07:53:30.619Z,1620
2018-06-11T07:54:30.595Z,1743
2018-06-11T07:55:30.653Z,1816
2018-06-11T07:56:30.641Z,1822
2018-06-11T07:57:30.636Z,1766
2018-06-11T07:58:30.639Z,1732
2018-06-11T07:59:30.718Z,1681
2018-06-11T08:00:30.712Z,1620
2018-06-11T08:01:30.696Z,1693
2018-06-11T08:02:30.598Z,1800
2018-06-11T08:03:30.707Z,1980
2018-06-11T08:04:30.709Z,1980
2018-06-11T08:05:30.752Z,1895
2018-06-11T08:06:30.714Z,1850
2018-06-11T08:07:30.769Z,1805
2018-06-11T08:08:30.704Z,1755
2018-06-11T08:09:30.717Z,1665
2018-06-11T08:10:30.685Z,1636
2018-06-11T08:11:30.700Z,1625
2018-06-11T08:12:30.684Z,1591
2018-06-11T08:13:30.785Z,1558
2018-06-11T08:14:30.621Z,1513
2018-06-11T08:15:30.618Z,1490
2018-06-11T08:16:30.688Z,1530
2018-06-11T08:17:30.622Z,1608
2018-06-11T08:18:30.688Z,1687
2018-06-11T08:19:30.620Z,1743
2018-06-11T08:20:30.624Z,1794
2018-06-11T08:21:30.621Z,1850
2018-06-11T08:22:30.649Z,1923
2018-06-11T08:23:30.624Z,1912
2018-06-11T08:24:30.694Z,1884
2018-06-11T08:25:30.682Z,1845
2018-06-11T08:26:30.616Z,1878
2018-06-11T08:27:30.762Z,1906
2018-06-11T08:28:30.680Z,1906
2018-06-11T08:29:30.689Z,2002
2018-06-11T08:30:30.684Z,2120
2018-06-11T08:31:30.688Z,2103
2018-06-11T08:32:30.634Z,2053
2018-06-11T08:33:30.690Z,1951
2018-06-11T08:34:30.654Z,1884
2018-06-11T08:35:30.701Z,1918
2018-06-11T08:36:30.666Z,2013
2018-06-11T08:37:30.715Z,2182
2018-06-11T08:38:30.725Z,2396
2018-06-11T08:39:30.701Z,2750
2018-06-11T08:40:30.703Z,2761
2018-06-11T08:41:30.708Z,2655
2018-06-11T08:42:30.612Z,2632
2018-06-11T08:43:30.611Z,2587
2018-06-11T08:44:30.721Z,2525
2018-06-11T08:45:30.641Z,2396
2018-06-11T08:46:30.627Z,2311
2018-06-11T08:47:30.744Z,2328
2018-06-11T08:48:30.730Z,2362
2018-06-11T08:49:30.672Z,2446
2018-06-11T08:50:30.708Z,2559
2018-06-11T08:51:30.685Z,2728
2018-06-11T08:52:30.679Z,2851
2018-06-11T08:53:30.709Z,2891
2018-06-11T08:54:30.750Z,2936
2018-06-11T08:55:30.713Z,2902
2018-06-11T08:56:30.644Z,2913
2018-06-11T08:57:30.691Z,3037
2018-06-11T08:58:30.651Z,3470
2018-06-11T08:59:30.651Z,3481
2018-06-11T09:00:30.646Z,3043
2018-06-11T09:01:30.600Z,2986
2018-06-11T09:02:30.653Z,2891
2018-06-11T09:03:30.650Z,2716
2018-06-11T09:04:30.718Z,2632
2018-06-11T09:05:30.677Z,2407
2018-06-11T09:06:30.698Z,2283
2018-06-11T09:07:30.758Z,2446
2018-06-11T09:08:30.800Z,2829
2018-06-11T09:09:30.690Z,3020
2018-06-11T09:10:30.755Z,3037
2018-06-11T09:11:30.697Z,3116
2018-06-11T09:12:30.692Z,3110
2018-06-11T09:13:30.721Z,2964
2018-06-11T09:14:30.753Z,2919
2018-06-11T09:15:30.765Z,2919
2018-06-11T09:16:30.751Z,2925
2018-06-11T09:17:30.704Z,2908
2018-06-11T09:18:30.820Z,2913
2018-06-11T09:19:30.705Z,2947
2018-06-11T09:20:30.686Z,2947
2018-06-11T09:21:30.669Z,2936
2018-06-11T09:22:30.655Z,2908
2018-06-11T09:23:30.633Z,2902
2018-06-11T09:24:30.747Z,2913
2018-06-11T09:25:30.651Z,2913
2018-06-11T09:26:30.703Z,2998
2018-06-11T09:27:30.656Z,3189
2018-06-11T09:28:30.686Z,3003
2018-06-11T09:29:30.752Z,3043
2018-06-11T09:30:30.731Z,3020
2018-06-11T09:31:30.702Z,3054
2018-06-11T09:32:30.733Z,3076
2018-06-11T09:33:30.713Z,3161
2018-06-11T09:34:30.778Z,3313
2018-06-11T09:35:30.662Z,3588
2018-06-11T09:36:30.739Z,3701
2018-06-11T09:37:30.719Z,3667
2018-06-11T09:38:30.660Z,3588
2018-06-11T09:39:30.716Z,3802
2018-06-11T09:40:30.702Z,5478
2018-06-11T09:41:30.719Z,3858
2018-06-11T09:42:30.718Z,3633
2018-06-11T09:43:30.680Z,3836
2018-06-11T09:44:30.650Z,4168
2018-06-11T09:45:30.706Z,7267
2018-06-11T09:46:30.668Z,6991
2018-06-11T09:47:30.746Z,6795
2018-06-11T09:48:30.761Z,6755
2018-06-11T09:49:30.750Z,6277
2018-06-11T09:50:30.730Z,5467
2018-06-11T09:51:30.785Z,4876
2018-06-11T09:52:30.750Z,5968
2018-06-11T09:53:30.789Z,5748
2018-06-11T09:54:30.706Z,6345
2018-06-11T09:55:30.728Z,6525
2018-06-11T09:56:30.782Z,6468
2018-06-11T09:57:30.752Z,6069
2018-06-11T09:58:30.778Z,4702
2018-06-11T09:59:30.751Z,3976
2018-06-11T10:00:30.793Z,4663
2018-06-11T10:01:30.659Z,5158
2018-06-11T10:02:30.734Z,6142
2018-06-11T10:03:30.790Z,5861
2018-06-11T10:04:30.756Z,4213
2018-06-11T10:05:30.721Z,4696
2018-06-11T10:06:30.721Z,4185
2018-06-11T10:07:30.728Z,4348
2018-06-11T10:08:30.696Z,4595
2018-06-11T10:09:30.790Z,4736
2018-06-11T10:10:30.669Z,5996
2018-06-11T10:11:30.826Z,5838
2018-06-11T10:12:30.826Z,5366
2018-06-11T10:13:30.778Z,5720
2018-06-11T10:14:30.736Z,5765
2018-06-11T10:15:30.778Z,5585
2018-06-11T10:16:30.787Z,5596
2018-06-11T10:17:30.725Z,5731
2018-06-11T10:18:30.721Z,5872
2018-06-11T10:19:30.734Z,5861
2018-06-11T10:20:30.762Z,5895
2018-06-11T10:21:30.743Z,5872
2018-06-11T10:22:30.736Z,5866
2018-06-11T10:23:30.750Z,5878
2018-06-11T10:24:30.795Z,5889
2018-06-11T10:25:30.723Z,5956
2018-06-11T10:26:30.709Z,5945
2018-06-11T10:27:30.677Z,5838
2018-06-11T10:28:30.799Z,5737
2018-06-11T10:29:30.810Z,5709
2018-06-11T10:30:30.739Z,5647
2018-06-11T10:31:30.799Z,5619
2018-06-11T10:32:30.695Z,5563
2018-06-11T10:33:30.738Z,5551
2018-06-11T10:34:30.733Z,5647
2018-06-11T10:35:30.684Z,5625
2018-06-11T10:36:30.711Z,5681
2018-06-11T10:37:30.781Z,5754
2018-06-11T10:38:30.715Z,5805
2018-06-11T10:39:30.780Z,5816
2018-06-11T10:40:30.712Z,5799
2018-06-11T10:41:30.784Z,5748
2018-06-11T10:42:30.717Z,5760
2018-06-11T10:43:30.785Z,5821
2018-06-11T10:44:30.713Z,5827
2018-06-11T10:45:30.786Z,5833
2018-06-11T10:46:30.685Z,5726
2018-06-11T10:47:30.684Z,5653
2018-06-11T10:48:30.817Z,5518
2018-06-11T10:49:30.784Z,5433
2018-06-11T10:50:30.787Z,5231
2018-06-11T10:51:30.815Z,5096
2018-06-11T10:52:30.791Z,4955
2018-06-11T10:53:30.709Z,4882
2018-06-11T10:54:30.760Z,4899
2018-06-11T10:55:30.759Z,4978
2018-06-11T10:56:30.791Z,5146
2018-06-11T10:57:30.794Z,5203
2018-06-11T10:58:30.733Z,5321
2018-06-11T10:59:30.752Z,5602
2018-06-11T11:00:30.808Z,5726
2018-06-11T11:01:30.798Z,5833
2018-06-11T11:02:30.786Z,5850
2018-06-11T11:03:30.730Z,5810
2018-06-11T11:04:30.806Z,5782
2018-06-11T11:05:30.730Z,5782
2018-06-11T11:06:30.813Z,5850
2018-06-11T11:07:30.825Z,5850
2018-06-11T11:08:30.766Z,5838
2018-06-11T11:09:30.762Z,5821
2018-06-11T11:10:30.841Z,5838
2018-06-11T11:11:30.801Z,5838
2018-06-11T11:12:30.806Z,5900
2018-06-11T11:13:30.840Z,5900
2018-06-11T11:14:30.724Z,5866
2018-06-11T11:15:30.890Z,5911
2018-06-11T11:16:30.826Z,5917
2018-06-11T11:17:30.764Z,5866
2018-06-11T11:18:30.770Z,5816
2018-06-11T11:19:30.845Z,5647
2018-06-11T11:20:30.839Z,5715
2018-06-11T11:21:30.809Z,5557
2018-06-11T11:22:30.787Z,5473
2018-06-11T11:23:30.809Z,5478
2018-06-11T11:24:30.790Z,5445
2018-06-11T11:25:30.778Z,5484
2018-06-11T11:26:30.831Z,5574
2018-06-11T11:27:30.839Z,5653
2018-06-11T11:28:30.836Z,5664
2018-06-11T11:29:30.737Z,5613
2018-06-11T11:30:30.814Z,5709
2018-06-11T11:31:30.784Z,5923
2018-06-11T11:32:30.773Z,5855
2018-06-11T11:33:30.739Z,5838
2018-06-11T11:34:30.794Z,5805
2018-06-11T11:35:30.855Z,5731
2018-06-11T11:36:30.722Z,5602
2018-06-11T11:37:30.776Z,5737
2018-06-11T11:38:30.753Z,5844
2018-06-11T11:39:30.716Z,5911
2018-06-11T11:40:30.857Z,6013
2018-06-11T11:41:30.852Z,6063
2018-06-11T11:42:30.783Z,6086
2018-06-11T11:43:30.859Z,5118
2018-06-11T11:44:30.842Z,4488
2018-06-11T11:45:30.722Z,3999
2018-06-11T11:46:30.709Z,4483
2018-06-11T11:47:30.808Z,4741
2018-06-11T11:48:30.815Z,5236
2018-06-11T11:49:30.811Z,5670
2018-06-11T11:50:30.732Z,5827
2018-06-11T11:51:30.823Z,5844
2018-06-11T11:52:30.736Z,5827
2018-06-11T11:53:30.739Z,5827
2018-06-11T11:54:30.738Z,5799
2018-06-11T11:55:30.830Z,5816
2018-06-11T11:56:30.785Z,5838
2018-06-11T11:57:30.834Z,5805
2018-06-11T11:58:30.857Z,5743
2018-06-11T11:59:30.863Z,5670
2018-06-11T12:00:30.850Z,5664
2018-06-11T12:01:30.871Z,5630
2018-06-11T12:02:30.812Z,5596
2018-06-11T12:03:30.790Z,5608
2018-06-11T12:04:30.858Z,5613
2018-06-11T12:05:30.859Z,5647
2018-06-11T12:06:30.814Z,5670
2018-06-11T12:07:30.747Z,5636
2018-06-11T12:08:30.857Z,5563
2018-06-11T12:09:30.742Z,5506
2018-06-11T12:10:30.745Z,5574
2018-06-11T12:11:30.743Z,5535
2018-06-11T12:12:30.863Z,5467
2018-06-11T12:13:30.809Z,5450
2018-06-11T12:14:30.801Z,5338
2018-06-11T12:15:30.755Z,5293
2018-06-11T12:16:30.777Z,5253
2018-06-11T12:17:30.844Z,5203
2018-06-11T12:18:30.777Z,5315
2018-06-11T12:19:30.850Z,5310
2018-06-11T12:20:30.790Z,5310
2018-06-11T12:21:30.854Z,5051
2018-06-11T12:22:30.850Z,5259
2018-06-11T12:23:30.783Z,5169
2018-06-11T12:24:30.856Z,4961
2018-06-11T12:25:30.849Z,5107
2018-06-11T12:26:30.853Z,5405
2018-06-11T12:27:30.757Z,5180
2018-06-11T12:28:30.821Z,5113
2018-06-11T12:29:30.811Z,5332
2018-06-11T12:30:30.880Z,5220
2018-06-11T12:31:30.892Z,5214
2018-06-11T12:32:30.760Z,5281
2018-06-11T12:33:30.836Z,5141
2018-06-11T12:34:30.833Z,4938
2018-06-11T12:35:30.880Z,4905
2018-06-11T12:36:30.791Z,4910
2018-06-11T12:37:30.848Z,4961
2018-06-11T12:38:30.789Z,4972
2018-06-11T12:39:30.857Z,4848
2018-06-11T12:40:30.853Z,4601
2018-06-11T12:41:30.854Z,4421
2018-06-11T12:42:30.764Z,4460
2018-06-11T12:43:30.858Z,4404
2018-06-11T12:44:30.767Z,4005
2018-06-11T12:45:30.867Z,3864
2018-06-11T12:46:30.896Z,3611
2018-06-11T12:47:30.881Z,3808
2018-06-11T12:48:30.897Z,3735
2018-06-11T12:49:30.771Z,4246
2018-06-11T12:50:30.829Z,4252
2018-06-11T12:51:30.848Z,4550
2018-06-11T12:52:30.873Z,4505
2018-06-11T12:53:30.768Z,3853
2018-06-11T12:54:30.829Z,4494
2018-06-11T12:55:30.849Z,5265
2018-06-11T12:56:30.847Z,5383
2018-06-11T12:57:30.889Z,4837
2018-06-11T12:58:30.831Z,4933
2018-06-11T12:59:30.900Z,5146
2018-06-11T13:00:30.904Z,5191
2018-06-11T13:01:30.852Z,5158
2018-06-11T13:02:30.826Z,5056
2018-06-11T13:03:30.846Z,4955
2018-06-11T13:04:30.842Z,4865
2018-06-11T13:05:30.905Z,4865
2018-06-11T13:06:30.843Z,4432
2018-06-11T13:07:30.909Z,5000
2018-06-11T13:08:30.777Z,4944
2018-06-11T13:09:30.910Z,4955
2018-06-11T13:10:30.899Z,4556
2018-06-11T13:11:30.858Z,4820
2018-06-11T13:12:30.846Z,4663
2018-06-11T13:13:30.845Z,4713
2018-06-11T13:14:30.885Z,4578
2018-06-11T13:15:30.922Z,4410
2018-06-11T13:16:30.878Z,3864
2018-06-11T13:17:30.773Z,3639
2018-06-11T13:18:30.884Z,4005
2018-06-11T13:19:30.773Z,4145
2018-06-11T13:20:30.870Z,4190
2018-06-11T13:21:30.760Z,3915
2018-06-11T13:22:30.796Z,4066
2018-06-11T13:23:30.923Z,4415
2018-06-11T13:24:30.871Z,3521
2018-06-11T13:25:30.835Z,4803
2018-06-11T13:26:30.802Z,4725
2018-06-11T13:27:30.933Z,4753
2018-06-11T13:28:30.912Z,4702
2018-06-11T13:29:30.876Z,4775
2018-06-11T13:30:30.830Z,4685
2018-06-11T13:31:30.895Z,4646
2018-06-11T13:32:30.924Z,4612
2018-06-11T13:33:30.893Z,4466
2018-06-11T13:34:30.803Z,4663
2018-06-11T13:35:30.800Z,4775
2018-06-11T13:36:30.820Z,3133
2018-06-11T13:37:30.804Z,3273
2018-06-11T13:38:30.873Z,3138
2018-06-11T13:39:30.877Z,2902
2018-06-11T13:40:30.930Z,3178
2018-06-11T13:41:30.861Z,3543
2018-06-11T13:42:30.806Z,3138
2018-06-11T13:43:30.902Z,3048
2018-06-11T13:44:30.913Z,3228
2018-06-11T13:45:30.899Z,2795
2018-06-11T13:46:30.812Z,3262